Bella Vita — ZCXZ8 — position and weather

sailwx.info

Track history (hours):
 
Tides and Currents Weather Stations Pressure Air Temp Water Temp Dewpoint Dewpoint Depression Visibility Wind Speed Wind Dir Waves Ship Positions

Bella Vita

Last reported at 2018-Jan-21 10:24 UTC. Time now 2018-Jan-22 16:01 UTC.
Position N 17°15' W 062°46'.

Length 75 m; draft 3.8 m.

Type: Pleasure craft. MMSI: 319008900.

Date/timePositionNaut miles runAvg speedWind from/ knotsBaromVisibWave heightAir tempDewpointWater temp
2018-Jan-21 10:24N 17°15' W 062°46'512.1
2018-Jan-21 09:59N 17°18' W 062°50'612.1
2018-Jan-21 09:30N 17°21' W 062°55'612.0
2018-Jan-21 09:00N 17°25' W 062°60'510.6
2018-Jan-21 08:30N 17°28' W 063°04'610.5
2018-Jan-21 07:53N 17°34' W 063°06'510.1
2018-Jan-21 07:25N 17°38' W 063°08'510.5
2018-Jan-21 06:58N 17°42' W 063°12'510.6
2018-Jan-21 06:29N 17°45' W 063°16'710.5
2018-Jan-21 05:51N 17°48' W 063°22'410.7
2018-Jan-21 05:30N 17°49' W 063°26'610.8
2018-Jan-21 04:55N 17°52' W 063°32'410.7
2018-Jan-21 04:30N 17°54' W 063°36'510.5
2018-Jan-21 04:00N 17°57' W 063°41'510.6
2018-Jan-21 03:30N 17°59' W 063°46'  
Track history (hours):
 
Tides and Currents Weather Stations Pressure Air Temp Water Temp Dewpoint Dewpoint Depression Visibility Wind Speed Wind Dir Waves Ship Positions

Bella Vita

Last reported at 2018-Jan-21 10:24 UTC. Time now 2018-Jan-22 16:01 UTC.
Position N 17°15' W 062°46'.

Length 75 m; draft 3.8 m.

Type: Pleasure craft. MMSI: 319008900.

Date/timePositionNaut miles runAvg speedWind from/ knotsBaromVisibWave heightAir tempDewpointWater temp
2018-Jan-21 10:24N 17°15' W 062°46'512.1
2018-Jan-21 09:59N 17°18' W 062°50'612.1
2018-Jan-21 09:30N 17°21' W 062°55'612.0
2018-Jan-21 09:00N 17°25' W 062°60'510.6
2018-Jan-21 08:30N 17°28' W 063°04'610.5
2018-Jan-21 07:53N 17°34' W 063°06'510.1
2018-Jan-21 07:25N 17°38' W 063°08'510.5
2018-Jan-21 06:58N 17°42' W 063°12'510.6
2018-Jan-21 06:29N 17°45' W 063°16'710.5
2018-Jan-21 05:51N 17°48' W 063°22'410.7
2018-Jan-21 05:30N 17°49' W 063°26'610.8
2018-Jan-21 04:55N 17°52' W 063°32'410.7
2018-Jan-21 04:30N 17°54' W 063°36'510.5
2018-Jan-21 04:00N 17°57' W 063°41'510.6
2018-Jan-21 03:30N 17°59' W 063°46'  

Dump ship's entire track history